Time;durP1;ratioP1;P1;durP2;ratioP2;P2;SDS_P1;SDS_P2;PMS_P1;PMS_P2;Temp;Humidity;BMP_temperature;BMP_pressure;BME280_temperature;BME280_humidity;BME280_pressure;Samples;Min_cycle;Max_cycle;Signal;HPM_P1;HPM_P2
2021/03/11 00:00:00;;;;;;;;;;;7.80;99.90;;;;;;5017743;28;19972;-78
2021/03/11 00:02:25;;;;;;;;;;;7.80;99.90;;;;;;4980513;28;20005;-78
2021/03/11 00:04:51;;;;;;;;;;;7.90;99.90;;;;;;4980372;28;20264;-78
2021/03/11 00:07:16;;;;;;;;;;;7.90;99.90;;;;;;4987390;28;19921;-78
2021/03/11 00:09:42;;;;;;;;;;;7.90;99.90;;;;;;4994371;28;20401;-78
2021/03/11 00:12:08;;;;;;;;;;;8.00;99.90;;;;;;4983540;28;19913;-78
2021/03/11 00:14:34;;;;;;;;;;;8.00;99.90;;;;;;4996304;28;19909;-78
2021/03/11 00:16:59;;;;;;;;;;;8.00;99.90;;;;;;4998009;28;20008;-78
2021/03/11 00:19:25;;;;;;;;;;;8.00;99.90;;;;;;4979833;28;19964;-77
2021/03/11 00:21:51;;;;;;;;;;;8.00;99.90;;;;;;4995706;28;20362;-78
2021/03/11 00:24:16;;;;;;;;;;;8.00;99.90;;;;;;4979376;28;19953;-78
2021/03/11 00:26:42;;;;;;;;;;;8.00;99.90;;;;;;4993414;28;19914;-78
2021/03/11 00:29:07;;;;;;;;;;;8.00;99.90;;;;;;4997721;28;19914;-78
2021/03/11 00:31:33;;;;;;;;;;;8.00;99.90;;;;;;4995100;28;20434;-77
2021/03/11 00:33:58;;;;;;;;;;;8.00;99.90;;;;;;4979438;28;19910;-77
2021/03/11 00:36:24;;;;;;;;;;;7.90;99.90;;;;;;4978299;28;19914;-78
2021/03/11 00:38:49;;;;;;;;;;;7.90;99.90;;;;;;4996261;28;19917;-78
2021/03/11 00:41:15;;;;;;;;;;;7.90;99.90;;;;;;4976833;28;19984;-78
2021/03/11 00:43:40;;;;;;;;;;;7.90;99.90;;;;;;4979530;28;19909;-78
2021/03/11 00:46:06;;;;;;;;;;;7.90;99.90;;;;;;4994120;28;19956;-78
2021/03/11 00:48:31;;;;;;;;;;;7.90;99.90;;;;;;4979858;28;19965;-78
2021/03/11 00:50:57;;;;;;;;;;;7.90;99.90;;;;;;4995953;28;19918;-78
2021/03/11 00:53:22;;;;;;;;;;;7.90;99.90;;;;;;4978933;28;19921;-78
2021/03/11 00:55:47;;;;;;;;;;;7.90;99.90;;;;;;4974253;28;19942;-78
2021/03/11 00:58:13;;;;;;;;;;;7.90;99.90;;;;;;4996824;28;19913;-78
2021/03/11 01:00:38;;;;;;;;;;;7.90;99.90;;;;;;4978888;28;19913;-78
2021/03/11 01:03:04;;;;;;;;;;;7.90;99.90;;;;;;4979772;28;20350;-77
2021/03/11 01:05:30;;;;;;;;;;;7.90;99.90;;;;;;4994494;28;19999;-78
2021/03/11 01:07:56;;;;;;;;;;;7.90;99.90;;;;;;4996334;28;19921;-77
2021/03/11 01:10:21;;;;;;;;;;;7.90;99.90;;;;;;4996891;28;19918;-78
2021/03/11 01:12:47;;;;;;;;;;;7.90;99.90;;;;;;4995378;28;19921;-78
2021/03/11 01:15:13;;;;;;;;;;;7.90;99.90;;;;;;4988343;28;19914;-77
2021/03/11 01:17:38;;;;;;;;;;;8.00;99.90;;;;;;5001796;28;19917;-77
2021/03/11 01:20:09;;;;;;;;;;;8.00;99.90;;;;;;4980641;28;19921;-78
2021/03/11 01:22:34;;;;;;;;;;;8.00;99.90;;;;;;4980012;28;20005;-78
2021/03/11 01:25:00;;;;;;;;;;;8.00;99.90;;;;;;4997430;28;19981;-78
2021/03/11 01:27:25;;;;;;;;;;;8.00;99.90;;;;;;4997241;28;19920;-77
2021/03/11 01:29:51;;;;;;;;;;;8.10;99.90;;;;;;4995242;28;19914;-77
2021/03/11 01:32:16;;;;;;;;;;;8.10;99.90;;;;;;4979767;28;20018;-78
2021/03/11 01:34:41;;;;;;;;;;;8.10;99.90;;;;;;4993123;28;19921;-78
2021/03/11 01:37:07;;;;;;;;;;;8.10;99.90;;;;;;5001124;28;19957;-78
2021/03/11 01:39:32;;;;;;;;;;;8.10;99.90;;;;;;5000188;28;19944;-78
2021/03/11 01:41:58;;;;;;;;;;;8.20;99.90;;;;;;4995780;28;19956;-78
2021/03/11 01:44:23;;;;;;;;;;;8.20;99.90;;;;;;4995177;28;19918;-78
2021/03/11 01:46:49;;;;;;;;;;;8.20;99.90;;;;;;4990658;28;19921;-77
2021/03/11 01:49:14;;;;;;;;;;;8.20;99.90;;;;;;4993578;28;19917;-78
2021/03/11 01:51:40;;;;;;;;;;;8.20;99.90;;;;;;5000830;28;20362;-78
2021/03/11 01:54:05;;;;;;;;;;;8.20;99.90;;;;;;5000146;28;19921;-77
2021/03/11 01:56:31;;;;;;;;;;;8.20;99.90;;;;;;5001299;28;19917;-78
2021/03/11 01:58:57;;;;;;;;;;;8.20;99.90;;;;;;4997942;28;19921;-77
2021/03/11 02:01:22;;;;;;;;;;;8.20;99.90;;;;;;4998119;28;20000;-78
2021/03/11 02:03:48;;;;;;;;;;;8.30;99.90;;;;;;4991980;28;19921;-78
2021/03/11 02:06:13;;;;;;;;;;;8.30;99.90;;;;;;4988813;28;19975;-78
2021/03/11 02:08:39;;;;;;;;;;;8.30;99.90;;;;;;4999778;28;19917;-78
2021/03/11 02:11:05;;;;;;;;;;;8.30;99.90;;;;;;4999576;28;20012;-78
2021/03/11 02:13:34;;;;;;;;;;;8.30;99.90;;;;;;4982592;28;20293;-78
2021/03/11 02:16:02;;;;;;;;;;;8.30;99.90;;;;;;4997994;28;19918;-78
2021/03/11 02:18:30;;;;;;;;;;;8.30;99.90;;;;;;5001432;28;20302;-77
2021/03/11 02:20:58;;;;;;;;;;;8.30;99.90;;;;;;4988245;28;20001;-78
2021/03/11 02:23:33;;;;;;;;;;;8.40;99.90;;;;;;4983863;28;19914;-78
2021/03/11 02:26:04;;;;;;;;;;;8.40;99.90;;;;;;4981306;28;20026;-78
2021/03/11 02:28:48;;;;;;;;;;;8.40;99.90;;;;;;4982196;28;19918;-78
2021/03/11 02:31:14;;;;;;;;;;;8.40;99.90;;;;;;4981582;28;19917;-78
2021/03/11 02:33:40;;;;;;;;;;;8.40;99.90;;;;;;4983166;28;19968;-77
2021/03/11 02:36:06;;;;;;;;;;;8.50;99.90;;;;;;4998112;28;19914;-77
2021/03/11 02:38:32;;;;;;;;;;;8.50;99.90;;;;;;4967498;28;19914;-78
2021/03/11 02:41:00;;;;;;;;;;;8.50;99.90;;;;;;4998693;28;20310;-78
2021/03/11 02:43:26;;;;;;;;;;;8.50;99.90;;;;;;4980969;28;19914;-78
2021/03/11 02:45:52;;;;;;;;;;;8.50;99.90;;;;;;4998656;28;19913;-77
2021/03/11 02:48:18;;;;;;;;;;;8.50;99.90;;;;;;4981818;28;20426;-77
2021/03/11 02:50:43;;;;;;;;;;;8.50;99.90;;;;;;4998928;28;19918;-78
2021/03/11 02:53:12;;;;;;;;;;;8.50;99.90;;;;;;4998287;28;19957;-77
2021/03/11 02:55:39;;;;;;;;;;;8.50;99.90;;;;;;4986756;28;19910;-77
2021/03/11 02:58:07;;;;;;;;;;;8.60;99.90;;;;;;4982696;28;19924;-78
2021/03/11 03:00:32;;;;;;;;;;;8.60;99.90;;;;;;4999140;28;19921;-78
2021/03/11 03:02:58;;;;;;;;;;;8.60;99.90;;;;;;4998927;28;19909;-78
2021/03/11 03:05:25;;;;;;;;;;;8.60;99.90;;;;;;4998328;28;20426;-78
2021/03/11 03:07:51;;;;;;;;;;;8.60;99.90;;;;;;4980879;28;19918;-77
2021/03/11 03:10:23;;;;;;;;;;;8.60;99.90;;;;;;4997411;28;19922;-77
2021/03/11 03:12:49;;;;;;;;;;;8.60;99.90;;;;;;4983160;28;20297;-78
2021/03/11 03:15:15;;;;;;;;;;;8.60;99.90;;;;;;4997259;28;20386;-78
2021/03/11 03:17:43;;;;;;;;;;;8.60;99.90;;;;;;4996595;28;19920;-78
2021/03/11 03:20:09;;;;;;;;;;;8.60;99.90;;;;;;4999113;28;19917;-77
2021/03/11 03:22:36;;;;;;;;;;;8.60;99.90;;;;;;4997259;28;19918;-77
2021/03/11 03:25:03;;;;;;;;;;;8.60;99.90;;;;;;4998470;28;19952;-77
2021/03/11 03:27:28;;;;;;;;;;;8.60;99.90;;;;;;4998263;28;20008;-78
2021/03/11 03:29:54;;;;;;;;;;;8.50;99.90;;;;;;4991793;28;19997;-78
2021/03/11 03:32:19;;;;;;;;;;;8.50;99.90;;;;;;4996321;28;20422;-77
2021/03/11 03:34:45;;;;;;;;;;;8.50;99.90;;;;;;4996982;28;19910;-77
2021/03/11 03:37:10;;;;;;;;;;;8.50;99.90;;;;;;4997498;28;19952;-77
2021/03/11 03:39:36;;;;;;;;;;;8.40;99.90;;;;;;4998660;28;19917;-78
2021/03/11 03:42:04;;;;;;;;;;;8.40;99.90;;;;;;4979947;28;19914;-78
2021/03/11 03:44:31;;;;;;;;;;;8.40;99.90;;;;;;4997151;28;19909;-78
2021/03/11 03:46:57;;;;;;;;;;;8.40;99.90;;;;;;4995757;28;19913;-77
2021/03/11 03:49:23;;;;;;;;;;;8.40;99.90;;;;;;4998030;28;19921;-77
2021/03/11 03:51:50;;;;;;;;;;;8.50;99.90;;;;;;4994866;28;19922;-77
2021/03/11 03:54:15;;;;;;;;;;;8.50;99.90;;;;;;4995667;28;19914;-78
2021/03/11 03:56:45;;;;;;;;;;;8.50;99.90;;;;;;4996565;28;20679;-77
2021/03/11 03:59:15;;;;;;;;;;;8.50;99.90;;;;;;4997690;28;19910;-78
2021/03/11 04:01:41;;;;;;;;;;;8.60;99.90;;;;;;4996898;28;20374;-77
2021/03/11 04:04:08;;;;;;;;;;;8.60;99.90;;;;;;4974214;28;19914;-77
2021/03/11 04:06:34;;;;;;;;;;;8.60;99.90;;;;;;4992158;28;19914;-77
2021/03/11 04:09:01;;;;;;;;;;;8.70;99.90;;;;;;4996078;28;20297;-77
2021/03/11 04:11:27;;;;;;;;;;;8.70;99.90;;;;;;4997436;28;19917;-77
2021/03/11 04:13:53;;;;;;;;;;;8.70;99.90;;;;;;4979642;28;19948;-77
2021/03/11 04:16:19;;;;;;;;;;;8.80;99.90;;;;;;4995818;28;19964;-77
2021/03/11 04:18:45;;;;;;;;;;;8.80;99.90;;;;;;4997169;28;19918;-77
2021/03/11 04:21:10;;;;;;;;;;;8.80;99.90;;;;;;4976985;28;20357;-77
2021/03/11 04:23:36;;;;;;;;;;;8.80;99.90;;;;;;4996638;28;19921;-77
2021/03/11 04:26:03;;;;;;;;;;;8.90;99.90;;;;;;4977165;28;19949;-77
2021/03/11 04:28:28;;;;;;;;;;;8.90;99.90;;;;;;4978921;28;19922;-77
2021/03/11 04:30:54;;;;;;;;;;;8.90;99.90;;;;;;4997432;28;19944;-77
2021/03/11 04:33:20;;;;;;;;;;;8.90;99.90;;;;;;4996273;28;19921;-77
2021/03/11 04:35:45;;;;;;;;;;;8.90;99.90;;;;;;4987697;28;20294;-77
2021/03/11 04:38:12;;;;;;;;;;;9.00;99.90;;;;;;4982879;28;19925;-77
2021/03/11 04:40:37;;;;;;;;;;;9.00;99.90;;;;;;4995516;28;19913;-78
2021/03/11 04:43:03;;;;;;;;;;;9.00;99.90;;;;;;4997021;28;19921;-77
2021/03/11 04:45:29;;;;;;;;;;;9.00;99.90;;;;;;4977452;28;19914;-77
2021/03/11 04:47:55;;;;;;;;;;;9.10;99.90;;;;;;4996090;28;19920;-77
2021/03/11 04:50:20;;;;;;;;;;;9.10;99.90;;;;;;4995059;28;20012;-77
2021/03/11 04:52:46;;;;;;;;;;;9.10;99.90;;;;;;4989157;28;19918;-77
2021/03/11 04:55:12;;;;;;;;;;;9.20;99.90;;;;;;4975605;28;20367;-77
2021/03/11 04:57:38;;;;;;;;;;;9.20;99.90;;;;;;4993156;28;20295;-79
2021/03/11 05:00:04;;;;;;;;;;;9.20;99.90;;;;;;4992731;28;19977;-77
2021/03/11 05:02:31;;;;;;;;;;;9.30;99.90;;;;;;4993886;28;19914;-77
2021/03/11 05:04:57;;;;;;;;;;;9.30;99.90;;;;;;4976410;28;19980;-77
2021/03/11 05:07:22;;;;;;;;;;;9.30;99.90;;;;;;4976786;28;19914;-77
2021/03/11 05:09:48;;;;;;;;;;;9.40;99.90;;;;;;4986161;28;20028;-77
2021/03/11 05:12:13;;;;;;;;;;;9.40;99.90;;;;;;4976791;28;20363;-77
2021/03/11 05:14:39;;;;;;;;;;;9.40;99.90;;;;;;4991710;28;19914;-77
2021/03/11 05:17:04;;;;;;;;;;;9.30;99.90;;;;;;4994066;28;19913;-77
2021/03/11 05:19:30;;;;;;;;;;;9.30;99.90;;;;;;4992511;28;19956;-77
2021/03/11 05:21:55;;;;;;;;;;;9.30;99.90;;;;;;4976083;28;19917;-77
2021/03/11 05:24:21;;;;;;;;;;;9.20;99.90;;;;;;4973352;28;21478;-77
2021/03/11 05:26:46;;;;;;;;;;;9.20;99.90;;;;;;4989969;28;19918;-78
2021/03/11 05:29:12;;;;;;;;;;;9.10;99.90;;;;;;4992158;28;19957;-78
2021/03/11 05:31:37;;;;;;;;;;;9.10;99.90;;;;;;4997620;28;19926;-78
2021/03/11 05:34:03;;;;;;;;;;;9.00;99.90;;;;;;4998210;28;19921;-78
2021/03/11 05:36:28;;;;;;;;;;;9.00;99.90;;;;;;4997046;28;20298;-78
2021/03/11 05:38:54;;;;;;;;;;;9.00;99.90;;;;;;4987917;28;19964;-79
2021/03/11 05:41:20;;;;;;;;;;;9.00;99.90;;;;;;4979967;28;19910;-78
2021/03/11 05:43:46;;;;;;;;;;;9.00;99.90;;;;;;4983005;28;19914;-79
2021/03/11 05:46:12;;;;;;;;;;;9.00;99.90;;;;;;4982985;28;19921;-78
2021/03/11 05:48:39;;;;;;;;;;;9.00;99.90;;;;;;4979986;28;19920;-78
2021/03/11 05:56:41;;;;;;;;;;;9.20;99.90;;;;;;4979042;28;20294;-83
2021/03/11 05:59:07;;;;;;;;;;;9.30;99.90;;;;;;4975928;28;19914;-81
2021/03/11 06:01:33;;;;;;;;;;;9.30;99.90;;;;;;4976593;28;20272;-81
2021/03/11 06:04:00;;;;;;;;;;;9.30;99.90;;;;;;4977349;28;19972;-80
2021/03/11 06:06:26;;;;;;;;;;;9.40;99.90;;;;;;4977170;28;20052;-82
2021/03/11 06:08:53;;;;;;;;;;;9.40;99.90;;;;;;4991736;28;20327;-81
2021/03/11 06:11:19;;;;;;;;;;;9.40;99.90;;;;;;4977586;28;19945;-80
2021/03/11 06:13:45;;;;;;;;;;;9.50;99.90;;;;;;4976635;28;19938;-82
2021/03/11 06:16:12;;;;;;;;;;;9.50;99.90;;;;;;4975766;28;19914;-82
2021/03/11 06:18:38;;;;;;;;;;;9.50;99.90;;;;;;4978606;28;19965;-82
2021/03/11 06:21:04;;;;;;;;;;;9.60;99.90;;;;;;4980670;28;20021;-82
2021/03/11 06:23:30;;;;;;;;;;;9.60;99.90;;;;;;4982191;28;20344;-81
2021/03/11 06:25:55;;;;;;;;;;;9.60;99.90;;;;;;4981492;28;19961;-82
2021/03/11 06:28:41;;;;;;;;;;;9.70;99.90;;;;;;4981708;28;20045;-82
2021/03/11 06:31:38;;;;;;;;;;;9.70;99.90;;;;;;4978575;28;19918;-81
2021/03/11 06:34:17;;;;;;;;;;;9.70;99.90;;;;;;4972575;28;19914;-80
2021/03/11 06:36:43;;;;;;;;;;;9.80;99.90;;;;;;4962248;28;20310;-81
2021/03/11 06:39:22;;;;;;;;;;;9.80;99.90;;;;;;4979857;28;19923;-82
2021/03/11 06:41:47;;;;;;;;;;;9.90;99.90;;;;;;4967944;28;19957;-81
2021/03/11 06:44:13;;;;;;;;;;;9.90;99.90;;;;;;4980535;28;19969;-81
2021/03/11 06:46:55;;;;;;;;;;;10.00;99.90;;;;;;4981313;28;20486;-82
2021/03/11 06:49:20;;;;;;;;;;;10.10;99.90;;;;;;4980443;28;19969;-82
2021/03/11 06:51:45;;;;;;;;;;;10.20;99.90;;;;;;4979400;28;19922;-84
2021/03/11 06:54:14;;;;;;;;;;;10.20;99.90;;;;;;4979984;28;19937;-81
2021/03/11 06:56:43;;;;;;;;;;;10.30;99.90;;;;;;4979044;28;19921;-80
2021/03/11 06:59:08;;;;;;;;;;;10.30;99.90;;;;;;4995403;28;20001;-81
2021/03/11 07:01:34;;;;;;;;;;;10.30;99.90;;;;;;4980511;28;19969;-81
2021/03/11 07:04:03;;;;;;;;;;;10.40;99.90;;;;;;4981220;28;19914;-81
2021/03/11 07:06:38;;;;;;;;;;;10.40;99.90;;;;;;4980976;28;19921;-81
2021/03/11 07:09:04;;;;;;;;;;;10.40;99.90;;;;;;4982749;28;20294;-81
2021/03/11 07:11:30;;;;;;;;;;;10.40;99.90;;;;;;4984349;28;19964;-80
2021/03/11 07:13:56;;;;;;;;;;;10.40;99.90;;;;;;4980731;28;19922;-81
2021/03/11 07:16:23;;;;;;;;;;;10.40;99.90;;;;;;4980037;28;20474;-81
2021/03/11 07:18:50;;;;;;;;;;;10.40;99.90;;;;;;4979648;28;19965;-81
2021/03/11 07:21:35;;;;;;;;;;;10.40;99.90;;;;;;4993992;28;20259;-80
2021/03/11 07:24:00;;;;;;;;;;;10.50;99.90;;;;;;4979230;28;19921;-81
2021/03/11 07:26:26;;;;;;;;;;;10.70;99.90;;;;;;4975474;28;20303;-81
2021/03/11 07:28:51;;;;;;;;;;;10.90;99.90;;;;;;4980140;28;19914;-80
2021/03/11 07:31:26;;;;;;;;;;;11.00;99.90;;;;;;4977633;28;19929;-82
2021/03/11 07:33:51;;;;;;;;;;;11.30;99.90;;;;;;4978977;28;19914;-81
2021/03/11 07:36:17;;;;;;;;;;;14.40;99.90;;;;;;4978209;28;19957;-81
2021/03/11 07:38:43;;;;;;;;;;;17.40;99.90;;;;;;4979136;28;19914;-81
2021/03/11 07:41:09;;;;;;;;;;;18.10;99.90;;;;;;4979918;28;19921;-81
2021/03/11 07:43:35;;;;;;;;;;;20.10;99.90;;;;;;4993375;28;19918;-81
2021/03/11 07:46:02;;;;;;;;;;;19.40;99.90;;;;;;4979528;28;19914;-81
2021/03/11 07:48:27;;;;;;;;;;;20.20;99.90;;;;;;4979320;28;19918;-81
2021/03/11 07:50:53;;;;;;;;;;;22.40;99.90;;;;;;4977604;28;19918;-81
2021/03/11 07:53:19;;;;;;;;;;;23.30;99.90;;;;;;4979636;28;19925;-81
2021/03/11 07:55:46;;;;;;;;;;;25.00;99.90;;;;;;4978902;28;19941;-82
2021/03/11 07:58:12;;;;;;;;;;;27.40;99.90;;;;;;4980416;28;20383;-82
2021/03/11 08:00:38;;;;;;;;;;;26.00;98.90;;;;;;4981118;28;19945;-82
2021/03/11 08:03:09;;;;;;;;;;;23.20;99.90;;;;;;4979921;28;19918;-82
2021/03/11 08:05:34;;;;;;;;;;;20.90;99.90;;;;;;4992856;28;19922;-81
2021/03/11 08:08:17;;;;;;;;;;;19.30;99.90;;;;;;4978755;28;20033;-80
2021/03/11 08:10:47;;;;;;;;;;;18.30;99.90;;;;;;4984913;28;19922;-82
2021/03/11 08:13:36;;;;;;;;;;;17.50;99.90;;;;;;4992080;28;19929;-82
2021/03/11 08:16:13;;;;;;;;;;;16.70;99.90;;;;;;4969338;28;20016;-81
2021/03/11 08:18:40;;;;;;;;;;;16.00;99.90;;;;;;4977352;28;19921;-81
2021/03/11 08:21:06;;;;;;;;;;;15.20;99.90;;;;;;4977532;28;19914;-81
2021/03/11 08:23:31;;;;;;;;;;;14.60;99.90;;;;;;4975519;28;19914;-81
2021/03/11 08:25:58;;;;;;;;;;;14.00;99.90;;;;;;4975802;28;19941;-80
2021/03/11 08:28:29;;;;;;;;;;;13.50;99.90;;;;;;4977242;28;19965;-80
2021/03/11 08:31:03;;;;;;;;;;;13.10;99.90;;;;;;4978067;28;19918;-81
2021/03/11 08:33:29;;;;;;;;;;;12.80;99.90;;;;;;4975204;28;19944;-80
2021/03/11 08:35:55;;;;;;;;;;;12.40;99.90;;;;;;4974683;28;19914;-81
2021/03/11 08:38:24;;;;;;;;;;;12.10;99.90;;;;;;4971470;28;20017;-79
2021/03/11 08:40:52;;;;;;;;;;;11.80;99.90;;;;;;4976353;28;19914;-81
2021/03/11 08:43:41;;;;;;;;;;;11.60;99.90;;;;;;4969689;28;20445;-81
2021/03/11 08:46:13;;;;;;;;;;;11.40;99.90;;;;;;4968688;28;19918;-81
2021/03/11 08:49:07;;;;;;;;;;;11.20;99.90;;;;;;4978109;28;19914;-79
2021/03/11 08:51:33;;;;;;;;;;;11.20;99.90;;;;;;4967747;28;19945;-80
2021/03/11 08:53:59;;;;;;;;;;;11.10;99.90;;;;;;4992472;28;19911;-80
2021/03/11 08:56:28;;;;;;;;;;;11.10;99.90;;;;;;4973033;28;19915;-80
2021/03/11 08:59:00;;;;;;;;;;;11.10;99.90;;;;;;4992315;28;19914;-81
2021/03/11 09:01:33;;;;;;;;;;;11.10;99.90;;;;;;4975475;28;20057;-79
2021/03/11 09:03:59;;;;;;;;;;;11.10;99.90;;;;;;4977364;28;19914;-79
2021/03/11 09:06:43;;;;;;;;;;;11.20;99.90;;;;;;4969717;28;19925;-80
2021/03/11 09:09:08;;;;;;;;;;;11.30;99.90;;;;;;4987796;28;20057;-80
2021/03/11 09:11:34;;;;;;;;;;;11.30;99.90;;;;;;4971234;28;19996;-80
2021/03/11 09:13:59;;;;;;;;;;;11.40;99.90;;;;;;4974438;28;19922;-80
2021/03/11 09:16:26;;;;;;;;;;;11.40;99.90;;;;;;4974758;28;19911;-80
2021/03/11 09:18:55;;;;;;;;;;;11.30;99.90;;;;;;4976325;28;19910;-80
2021/03/11 09:21:21;;;;;;;;;;;11.30;99.90;;;;;;4976352;28;19945;-80
2021/03/11 09:23:46;;;;;;;;;;;11.30;99.90;;;;;;4966043;28;20522;-80
2021/03/11 09:26:25;;;;;;;;;;;11.40;99.90;;;;;;4964649;28;19976;-79
2021/03/11 09:28:51;;;;;;;;;;;12.30;99.90;;;;;;5000065;28;19946;-80
2021/03/11 09:31:23;;;;;;;;;;;15.40;99.90;;;;;;4978202;28;19918;-81
2021/03/11 09:33:49;;;;;;;;;;;18.80;99.90;;;;;;4971268;28;19917;-81
2021/03/11 09:36:16;;;;;;;;;;;21.70;99.90;;;;;;4994799;28;19910;-81
2021/03/11 09:38:42;;;;;;;;;;;23.80;99.90;;;;;;4979873;28;19910;-81
2021/03/11 09:41:07;;;;;;;;;;;25.30;99.90;;;;;;4988753;28;19925;-81
2021/03/11 09:43:35;;;;;;;;;;;26.50;99.90;;;;;;4975711;28;20345;-81
2021/03/11 09:46:01;;;;;;;;;;;27.40;99.90;;;;;;4955162;28;19926;-82
2021/03/11 09:48:29;;;;;;;;;;;27.90;98.10;;;;;;4965473;28;19918;-81
2021/03/11 10:05:17;;;;;;;;;;;29.70;68.30;;;;;;6197165;23;20090;-81
2021/03/11 10:08:12;;;;;;;;;;;29.80;63.90;;;;;;6192364;23;20303;-81
2021/03/11 10:10:55;;;;;;;;;;;29.70;61.40;;;;;;6180999;23;19912;-80
2021/03/11 10:14:05;;;;;;;;;;;29.80;58.10;;;;;;6165655;23;19904;-80
2021/03/11 10:16:33;;;;;;;;;;;29.70;56.70;;;;;;6133918;23;19952;-79
2021/03/11 10:19:00;;;;;;;;;;;29.70;55.30;;;;;;6167164;23;19932;-80
2021/03/11 10:21:25;;;;;;;;;;;29.80;55.00;;;;;;6166775;23;19904;-79
2021/03/11 10:23:51;;;;;;;;;;;30.10;54.30;;;;;;6167102;23;19996;-80
2021/03/11 10:26:18;;;;;;;;;;;29.70;53.50;;;;;;6167340;23;19995;-79
2021/03/11 10:28:44;;;;;;;;;;;29.20;52.80;;;;;;6167937;23;20291;-80
2021/03/11 10:31:10;;;;;;;;;;;29.00;52.00;;;;;;6167494;23;19904;-80
2021/03/11 10:33:36;;;;;;;;;;;29.20;50.80;;;;;;6165176;23;19928;-80
2021/03/11 10:36:17;;;;;;;;;;;29.30;48.80;;;;;;6166942;23;19905;-79
2021/03/11 10:38:59;;;;;;;;;;;28.70;47.40;;;;;;6165440;23;19905;-80
2021/03/11 10:41:24;;;;;;;;;;;29.00;47.20;;;;;;6167265;23;19924;-80
2021/03/11 10:44:03;;;;;;;;;;;29.70;46.40;;;;;;6167241;23;19905;-81
2021/03/11 10:46:28;;;;;;;;;;;29.50;46.10;;;;;;6167754;23;20323;-80
2021/03/11 10:48:54;;;;;;;;;;;30.20;44.40;;;;;;6167577;23;20035;-80
2021/03/11 10:51:21;;;;;;;;;;;30.30;43.40;;;;;;6166230;23;19938;-80
2021/03/11 10:53:47;;;;;;;;;;;30.60;43.00;;;;;;6165446;23;20335;-79
2021/03/11 10:56:12;;;;;;;;;;;30.80;42.20;;;;;;6165279;23;19952;-79
2021/03/11 10:58:39;;;;;;;;;;;30.90;42.00;;;;;;6168879;23;19900;-80
2021/03/11 11:01:15;;;;;;;;;;;31.40;41.00;;;;;;6162572;23;19904;-81
2021/03/11 11:03:41;;;;;;;;;;;31.10;40.00;;;;;;6159924;23;19916;-80
2021/03/11 11:06:07;;;;;;;;;;;30.60;39.80;;;;;;6160940;23;19904;-79
2021/03/11 11:08:34;;;;;;;;;;;30.00;38.90;;;;;;6161013;23;19901;-82
2021/03/11 11:11:01;;;;;;;;;;;29.70;38.30;;;;;;6160340;23;19908;-82
2021/03/11 11:13:27;;;;;;;;;;;28.50;39.00;;;;;;6159503;23;19935;-80
2021/03/11 11:15:53;;;;;;;;;;;28.00;39.20;;;;;;6159402;23;19904;-80
2021/03/11 11:18:18;;;;;;;;;;;28.00;39.40;;;;;;6160719;23;19904;-80
2021/03/11 11:20:44;;;;;;;;;;;27.50;39.80;;;;;;6161217;23;19905;-79
2021/03/11 11:23:09;;;;;;;;;;;27.10;39.60;;;;;;6159712;23;19963;-79
2021/03/11 11:25:35;;;;;;;;;;;25.60;40.40;;;;;;6160050;23;19955;-79
2021/03/11 11:28:03;;;;;;;;;;;24.50;41.30;;;;;;6159574;23;19905;-81
2021/03/11 11:30:28;;;;;;;;;;;23.40;41.80;;;;;;6160890;23;19915;-79
2021/03/11 11:32:54;;;;;;;;;;;22.50;42.60;;;;;;6182288;23;19944;-79
2021/03/11 11:35:21;;;;;;;;;;;22.30;42.90;;;;;;6157658;23;19935;-78
2021/03/11 11:37:47;;;;;;;;;;;21.70;43.20;;;;;;6160258;23;19912;-79
2021/03/11 11:40:13;;;;;;;;;;;21.50;43.70;;;;;;6159821;23;20347;-79
2021/03/11 11:42:38;;;;;;;;;;;21.50;44.00;;;;;;6160634;23;19911;-82
2021/03/11 11:45:05;;;;;;;;;;;21.00;44.20;;;;;;6158909;23;19905;-79
2021/03/11 11:47:30;;;;;;;;;;;20.40;44.50;;;;;;6158326;23;20232;-80
2021/03/11 11:49:56;;;;;;;;;;;21.10;45.50;;;;;;6158969;23;19909;-80
2021/03/11 11:55:17;;;;;;;;;;;22.30;45.50;;;;;;6228577;22;19926;-83
2021/03/11 11:58:13;;;;;;;;;;;;;;;;;;;;;
2021/03/11 12:22:22;;;;;;;;;;;26.00;42.40;;;;;;6233842;22;20259;-83
2021/03/11 12:28:16;;;;;;;;;;;24.70;41.70;;;;;;6232899;23;19904;-84
2021/03/11 12:51:56;;;;;;;;;;;;;;;;;;;;;
2021/03/11 13:19:27;;;;;;;;;;;;;;;;;;;;;
2021/03/11 13:31:04;;;;;;;;;;;21.80;44.40;;;;;;6235134;22;19960;-82
2021/03/11 13:40:10;;;;;;;;;;;20.50;45.00;;;;;;6187455;23;19904;-83
2021/03/11 14:01:16;;;;;;;;;;;17.40;48.30;;;;;;6227196;22;19958;-83
2021/03/11 14:06:56;;;;;;;;;;;17.60;48.80;;;;;;6222056;23;19923;-82
2021/03/11 14:12:48;;;;;;;;;;;18.00;48.30;;;;;;6222259;22;20365;-80
2021/03/11 14:15:43;;;;;;;;;;;17.60;48.00;;;;;;6207503;23;19908;-82
2021/03/11 14:22:06;;;;;;;;;;;;;;;;;;;;;
2021/03/11 14:24:43;;;;;;;;;;;17.50;48.00;;;;;;6238735;23;19950;-82
2021/03/11 14:30:47;;;;;;;;;;;;;;;;;;;;;
2021/03/11 14:33:42;;;;;;;;;;;18.70;47.90;;;;;;6252194;23;20329;-83
2021/03/11 14:46:01;;;;;;;;;;;;;;;;;;;;;
2021/03/11 14:55:12;;;;;;;;;;;18.90;47.60;;;;;;6191586;23;19915;-84
2021/03/11 15:07:18;;;;;;;;;;;18.80;47.20;;;;;;6227427;23;19994;-81
2021/03/11 15:19:21;;;;;;;;;;;17.20;47.80;;;;;;6236831;23;19904;-84
2021/03/11 15:30:36;;;;;;;;;;;16.70;48.40;;;;;;6224734;23;19918;-81
2021/03/11 15:33:04;;;;;;;;;;;16.50;48.40;;;;;;6251687;23;19950;-81
2021/03/11 15:35:30;;;;;;;;;;;16.20;48.70;;;;;;6250947;23;20243;-80
2021/03/11 15:37:56;;;;;;;;;;;16.00;48.80;;;;;;6252020;23;20341;-83
2021/03/11 15:40:22;;;;;;;;;;;15.80;49.10;;;;;;6224318;23;19910;-81
2021/03/11 15:42:48;;;;;;;;;;;15.70;49.30;;;;;;6225479;23;19955;-80
2021/03/11 15:45:14;;;;;;;;;;;15.60;49.40;;;;;;6253225;23;19908;-80
2021/03/11 15:47:39;;;;;;;;;;;15.60;49.50;;;;;;6252429;23;19907;-80
2021/03/11 15:50:06;;;;;;;;;;;15.50;49.60;;;;;;6225248;23;19930;-80
2021/03/11 15:52:31;;;;;;;;;;;15.50;49.70;;;;;;6250227;22;20305;-80
2021/03/11 15:54:57;;;;;;;;;;;15.40;49.70;;;;;;6248919;23;19911;-81
2021/03/11 15:57:22;;;;;;;;;;;15.30;49.80;;;;;;6251477;23;19919;-80
2021/03/11 15:59:48;;;;;;;;;;;15.20;49.90;;;;;;6252672;23;19903;-81
2021/03/11 16:02:15;;;;;;;;;;;15.10;50.00;;;;;;6252641;22;19908;-80
2021/03/11 16:04:41;;;;;;;;;;;14.90;50.00;;;;;;6252656;23;19903;-80
2021/03/11 16:07:06;;;;;;;;;;;14.90;50.20;;;;;;6226987;23;19915;-80
2021/03/11 16:09:32;;;;;;;;;;;14.90;50.40;;;;;;6226486;23;19951;-79
2021/03/11 16:11:57;;;;;;;;;;;14.90;50.50;;;;;;6254571;22;19907;-79
2021/03/11 16:14:23;;;;;;;;;;;14.90;50.50;;;;;;6253454;23;19978;-81
2021/03/11 16:16:48;;;;;;;;;;;14.80;50.60;;;;;;6253962;23;19931;-80
2021/03/11 16:19:14;;;;;;;;;;;14.70;50.70;;;;;;6252846;23;20548;-80
2021/03/11 16:21:39;;;;;;;;;;;14.60;50.80;;;;;;6225136;23;20023;-79
2021/03/11 16:24:05;;;;;;;;;;;14.50;50.80;;;;;;6225714;23;20341;-79
2021/03/11 16:26:31;;;;;;;;;;;14.50;51.50;;;;;;6252668;23;19903;-80
2021/03/11 16:28:56;;;;;;;;;;;14.50;51.00;;;;;;6252527;23;19904;-80
2021/03/11 16:31:24;;;;;;;;;;;14.40;51.10;;;;;;6252010;22;19914;-80
2021/03/11 16:33:52;;;;;;;;;;;14.20;51.20;;;;;;6250239;23;19923;-80
2021/03/11 16:36:26;;;;;;;;;;;14.00;51.40;;;;;;6221973;23;20241;-80
2021/03/11 16:45:24;;;;;;;;;;;;;;;;;;;;;
2021/03/11 17:09:44;;;;;;;;;;;;;;;;;;;;;
2021/03/11 17:52:40;;;;;;;;;;;;;;;;;;;;;
2021/03/11 17:55:36;;;;;;;;;;;11.90;55.60;;;;;;6253684;23;19931;-82
2021/03/11 18:04:34;;;;;;;;;;;11.70;55.70;;;;;;6231677;23;19915;-81
2021/03/11 18:07:40;;;;;;;;;;;11.60;55.80;;;;;;6248011;23;19904;-81
2021/03/11 18:13:36;;;;;;;;;;;11.50;56.10;;;;;;6225592;23;19907;-81
2021/03/11 18:19:38;;;;;;;;;;;;;;;;;;;;;
2021/03/11 18:34:33;;;;;;;;;;;11.20;57.70;;;;;;6222250;23;20242;-80
2021/03/11 18:37:10;;;;;;;;;;;;;;;;;;;;;
2021/03/11 18:40:17;;;;;;;;;;;11.20;58.10;;;;;;6242659;23;19960;-79
2021/03/11 18:43:06;;;;;;;;;;;11.20;58.20;;;;;;6250064;22;19911;-80
2021/03/11 18:51:50;;;;;;;;;;;10.90;59.50;;;;;;6233984;22;19914;-81
2021/03/11 18:54:56;;;;;;;;;;;10.80;59.80;;;;;;6223550;23;19911;-81
2021/03/11 18:57:50;;;;;;;;;;;10.70;60.00;;;;;;6249435;23;20253;-82
2021/03/11 19:15:53;;;;;;;;;;;10.40;60.70;;;;;;6221839;23;19910;-81
2021/03/11 19:27:16;;;;;;;;;;;10.40;61.30;;;;;;6235243;23;19904;-82
2021/03/11 19:29:44;;;;;;;;;;;10.40;61.90;;;;;;6249758;23;19957;-81
2021/03/11 19:32:12;;;;;;;;;;;10.40;62.40;;;;;;6222199;23;19927;-81
2021/03/11 19:34:37;;;;;;;;;;;10.40;62.80;;;;;;6222895;23;19982;-81
2021/03/11 19:37:03;;;;;;;;;;;10.30;63.10;;;;;;6248472;23;19907;-80
2021/03/11 19:39:29;;;;;;;;;;;10.30;63.50;;;;;;6249476;23;19903;-79
2021/03/11 19:41:54;;;;;;;;;;;10.20;63.70;;;;;;6222776;23;19907;-81
2021/03/11 19:44:20;;;;;;;;;;;10.20;63.90;;;;;;6222234;23;19918;-80
2021/03/11 19:46:46;;;;;;;;;;;10.10;64.20;;;;;;6248412;23;19910;-80
2021/03/11 19:49:12;;;;;;;;;;;10.10;64.60;;;;;;6222380;23;19904;-80
2021/03/11 19:51:37;;;;;;;;;;;10.00;64.90;;;;;;6250247;22;19913;-79